sensor_id;sensor_type;location;lat;lon;timestamp;P1;durP1;ratioP1;P2;durP2;ratioP2
31336;SDS011;22846;42.654;23.314;2023-02-01T00:01:39;17.73;;;13.50;;
31336;SDS011;22846;42.654;23.314;2023-02-01T00:04:04;18.33;;;13.05;;
31336;SDS011;22846;42.654;23.314;2023-02-01T00:06:30;18.10;;;13.18;;
31336;SDS011;22846;42.654;23.314;2023-02-01T00:08:55;17.55;;;12.88;;
31336;SDS011;22846;42.654;23.314;2023-02-01T00:11:21;19.38;;;12.55;;
31336;SDS011;22846;42.654;23.314;2023-02-01T00:13:47;16.15;;;11.95;;
31336;SDS011;22846;42.654;23.314;2023-02-01T00:16:14;15.13;;;11.65;;
31336;SDS011;22846;42.654;23.314;2023-02-01T00:18:42;17.17;;;11.88;;
31336;SDS011;22846;42.654;23.314;2023-02-01T00:21:13;16.60;;;12.07;;
31336;SDS011;22846;42.654;23.314;2023-02-01T00:23:39;16.25;;;12.05;;
31336;SDS011;22846;42.654;23.314;2023-02-01T00:26:06;15.30;;;11.23;;
31336;SDS011;22846;42.654;23.314;2023-02-01T00:28:36;16.10;;;11.32;;
31336;SDS011;22846;42.654;23.314;2023-02-01T00:31:02;15.18;;;10.90;;
31336;SDS011;22846;42.654;23.314;2023-02-01T00:33:29;14.40;;;10.52;;
31336;SDS011;22846;42.654;23.314;2023-02-01T00:35:56;14.50;;;10.43;;
31336;SDS011;22846;42.654;23.314;2023-02-01T00:38:23;16.10;;;11.13;;
31336;SDS011;22846;42.654;23.314;2023-02-01T00:40:49;14.05;;;10.27;;
31336;SDS011;22846;42.654;23.314;2023-02-01T00:43:15;13.43;;;10.10;;
31336;SDS011;22846;42.654;23.314;2023-02-01T00:45:40;13.73;;;10.35;;
31336;SDS011;22846;42.654;23.314;2023-02-01T00:48:05;14.77;;;10.00;;
31336;SDS011;22846;42.654;23.314;2023-02-01T00:50:31;13.40;;;9.65;;
31336;SDS011;22846;42.654;23.314;2023-02-01T00:52:56;11.68;;;8.63;;
31336;SDS011;22846;42.654;23.314;2023-02-01T00:55:22;11.13;;;8.80;;
31336;SDS011;22846;42.654;23.314;2023-02-01T00:57:47;12.43;;;9.40;;
31336;SDS011;22846;42.654;23.314;2023-02-01T01:00:13;12.52;;;9.40;;
31336;SDS011;22846;42.654;23.314;2023-02-01T01:02:38;12.88;;;9.40;;
31336;SDS011;22846;42.654;23.314;2023-02-01T01:05:04;11.98;;;9.07;;
31336;SDS011;22846;42.654;23.314;2023-02-01T01:07:29;12.05;;;8.65;;
31336;SDS011;22846;42.654;23.314;2023-02-01T01:09:55;11.25;;;8.30;;
31336;SDS011;22846;42.654;23.314;2023-02-01T01:12:20;11.65;;;8.90;;
31336;SDS011;22846;42.654;23.314;2023-02-01T01:14:45;11.63;;;8.52;;
31336;SDS011;22846;42.654;23.314;2023-02-01T01:17:11;10.02;;;8.05;;
31336;SDS011;22846;42.654;23.314;2023-02-01T01:19:36;11.45;;;8.38;;
31336;SDS011;22846;42.654;23.314;2023-02-01T01:22:02;11.82;;;8.55;;
31336;SDS011;22846;42.654;23.314;2023-02-01T01:24:27;10.52;;;8.10;;
31336;SDS011;22846;42.654;23.314;2023-02-01T01:26:53;11.52;;;8.65;;
31336;SDS011;22846;42.654;23.314;2023-02-01T01:29:18;10.63;;;7.97;;
31336;SDS011;22846;42.654;23.314;2023-02-01T01:31:43;10.27;;;7.70;;
31336;SDS011;22846;42.654;23.314;2023-02-01T01:34:09;9.82;;;7.47;;
31336;SDS011;22846;42.654;23.314;2023-02-01T01:36:34;10.00;;;7.43;;
31336;SDS011;22846;42.654;23.314;2023-02-01T01:39:00;9.85;;;7.47;;
31336;SDS011;22846;42.654;23.314;2023-02-01T01:41:26;10.98;;;7.43;;
31336;SDS011;22846;42.654;23.314;2023-02-01T01:43:59;8.95;;;7.00;;
31336;SDS011;22846;42.654;23.314;2023-02-01T01:46:28;11.00;;;7.50;;
31336;SDS011;22846;42.654;23.314;2023-02-01T01:49:11;11.63;;;7.70;;
31336;SDS011;22846;42.654;23.314;2023-02-01T01:54:11;9.10;;;6.20;;
31336;SDS011;22846;42.654;23.314;2023-02-01T01:56:42;8.02;;;6.38;;
31336;SDS011;22846;42.654;23.314;2023-02-01T01:59:10;9.65;;;6.72;;
31336;SDS011;22846;42.654;23.314;2023-02-01T02:01:36;8.30;;;6.55;;
31336;SDS011;22846;42.654;23.314;2023-02-01T02:04:02;9.38;;;7.07;;
31336;SDS011;22846;42.654;23.314;2023-02-01T02:06:50;7.47;;;6.15;;
31336;SDS011;22846;42.654;23.314;2023-02-01T02:09:20;8.13;;;6.15;;
31336;SDS011;22846;42.654;23.314;2023-02-01T02:11:46;8.98;;;6.05;;
31336;SDS011;22846;42.654;23.314;2023-02-01T02:14:12;8.02;;;5.80;;
31336;SDS011;22846;42.654;23.314;2023-02-01T02:28:18;8.57;;;6.45;;
31336;SDS011;22846;42.654;23.314;2023-02-01T02:39:11;6.97;;;5.32;;
31336;SDS011;22846;42.654;23.314;2023-02-01T02:44:50;7.65;;;5.50;;
31336;SDS011;22846;42.654;23.314;2023-02-01T02:56:37;5.95;;;4.80;;
31336;SDS011;22846;42.654;23.314;2023-02-01T02:59:21;6.35;;;4.90;;
31336;SDS011;22846;42.654;23.314;2023-02-01T03:02:09;6.03;;;4.68;;
31336;SDS011;22846;42.654;23.314;2023-02-01T03:04:54;5.78;;;4.40;;
31336;SDS011;22846;42.654;23.314;2023-02-01T03:10:09;5.38;;;4.32;;
31336;SDS011;22846;42.654;23.314;2023-02-01T03:12:43;6.47;;;4.90;;
31336;SDS011;22846;42.654;23.314;2023-02-01T03:15:21;5.47;;;4.35;;
31336;SDS011;22846;42.654;23.314;2023-02-01T03:17:55;5.82;;;4.50;;
31336;SDS011;22846;42.654;23.314;2023-02-01T03:20:22;5.20;;;3.88;;
31336;SDS011;22846;42.654;23.314;2023-02-01T03:22:50;5.47;;;4.07;;
31336;SDS011;22846;42.654;23.314;2023-02-01T03:25:25;6.75;;;4.40;;
31336;SDS011;22846;42.654;23.314;2023-02-01T03:30:31;6.38;;;3.90;;
31336;SDS011;22846;42.654;23.314;2023-02-01T03:33:00;5.72;;;4.13;;
31336;SDS011;22846;42.654;23.314;2023-02-01T03:38:24;4.43;;;3.50;;
31336;SDS011;22846;42.654;23.314;2023-02-01T03:41:09;5.68;;;4.00;;
31336;SDS011;22846;42.654;23.314;2023-02-01T03:46:42;4.32;;;3.55;;
31336;SDS011;22846;42.654;23.314;2023-02-01T03:49:13;4.97;;;3.75;;
31336;SDS011;22846;42.654;23.314;2023-02-01T03:51:47;5.18;;;3.80;;
31336;SDS011;22846;42.654;23.314;2023-02-01T03:54:15;4.60;;;3.70;;
31336;SDS011;22846;42.654;23.314;2023-02-01T03:56:43;4.70;;;3.40;;
31336;SDS011;22846;42.654;23.314;2023-02-01T03:59:10;4.38;;;3.45;;
31336;SDS011;22846;42.654;23.314;2023-02-01T04:01:37;4.18;;;3.40;;
31336;SDS011;22846;42.654;23.314;2023-02-01T04:04:02;4.57;;;3.50;;
31336;SDS011;22846;42.654;23.314;2023-02-01T04:06:28;4.03;;;3.03;;
31336;SDS011;22846;42.654;23.314;2023-02-01T04:08:53;3.38;;;3.08;;
31336;SDS011;22846;42.654;23.314;2023-02-01T04:11:18;4.30;;;3.25;;
31336;SDS011;22846;42.654;23.314;2023-02-01T04:13:44;3.88;;;3.00;;
31336;SDS011;22846;42.654;23.314;2023-02-01T04:16:10;4.30;;;3.00;;
31336;SDS011;22846;42.654;23.314;2023-02-01T04:18:36;3.58;;;2.90;;
31336;SDS011;22846;42.654;23.314;2023-02-01T04:21:02;3.15;;;2.80;;
31336;SDS011;22846;42.654;23.314;2023-02-01T04:23:28;3.50;;;2.70;;
31336;SDS011;22846;42.654;23.314;2023-02-01T04:25:58;2.78;;;2.50;;
31336;SDS011;22846;42.654;23.314;2023-02-01T04:28:25;3.53;;;2.80;;
31336;SDS011;22846;42.654;23.314;2023-02-01T04:30:50;2.63;;;2.40;;
31336;SDS011;22846;42.654;23.314;2023-02-01T04:33:16;5.13;;;2.70;;
31336;SDS011;22846;42.654;23.314;2023-02-01T04:35:41;2.83;;;2.53;;
31336;SDS011;22846;42.654;23.314;2023-02-01T04:38:06;3.05;;;2.60;;
31336;SDS011;22846;42.654;23.314;2023-02-01T04:40:32;3.08;;;2.53;;
31336;SDS011;22846;42.654;23.314;2023-02-01T04:42:58;3.38;;;2.25;;
31336;SDS011;22846;42.654;23.314;2023-02-01T04:45:25;3.25;;;2.33;;
31336;SDS011;22846;42.654;23.314;2023-02-01T04:47:50;3.00;;;2.40;;
31336;SDS011;22846;42.654;23.314;2023-02-01T04:50:16;2.40;;;2.13;;
31336;SDS011;22846;42.654;23.314;2023-02-01T04:52:41;2.40;;;2.20;;
31336;SDS011;22846;42.654;23.314;2023-02-01T04:55:07;2.22;;;1.80;;
31336;SDS011;22846;42.654;23.314;2023-02-01T04:57:32;2.28;;;1.80;;
31336;SDS011;22846;42.654;23.314;2023-02-01T04:59:58;2.13;;;1.85;;
31336;SDS011;22846;42.654;23.314;2023-02-01T05:02:23;3.42;;;2.08;;
31336;SDS011;22846;42.654;23.314;2023-02-01T05:04:49;2.63;;;2.15;;
31336;SDS011;22846;42.654;23.314;2023-02-01T05:07:15;2.47;;;1.95;;
31336;SDS011;22846;42.654;23.314;2023-02-01T05:09:41;2.15;;;1.80;;
31336;SDS011;22846;42.654;23.314;2023-02-01T05:12:06;2.30;;;1.88;;
31336;SDS011;22846;42.654;23.314;2023-02-01T05:14:51;2.13;;;1.67;;
31336;SDS011;22846;42.654;23.314;2023-02-01T05:17:16;2.28;;;1.98;;
31336;SDS011;22846;42.654;23.314;2023-02-01T05:19:42;2.28;;;1.75;;
31336;SDS011;22846;42.654;23.314;2023-02-01T05:22:07;2.40;;;1.80;;
31336;SDS011;22846;42.654;23.314;2023-02-01T05:24:33;2.50;;;1.90;;
31336;SDS011;22846;42.654;23.314;2023-02-01T05:26:58;1.65;;;1.55;;
31336;SDS011;22846;42.654;23.314;2023-02-01T05:29:23;2.05;;;1.65;;
31336;SDS011;22846;42.654;23.314;2023-02-01T05:31:49;2.42;;;1.83;;
31336;SDS011;22846;42.654;23.314;2023-02-01T05:34:15;2.15;;;1.75;;
31336;SDS011;22846;42.654;23.314;2023-02-01T05:36:40;2.53;;;1.70;;
31336;SDS011;22846;42.654;23.314;2023-02-01T05:39:06;1.90;;;1.60;;
31336;SDS011;22846;42.654;23.314;2023-02-01T05:41:31;1.50;;;1.25;;
31336;SDS011;22846;42.654;23.314;2023-02-01T05:43:57;2.50;;;1.70;;
31336;SDS011;22846;42.654;23.314;2023-02-01T05:46:22;3.85;;;1.60;;
31336;SDS011;22846;42.654;23.314;2023-02-01T05:48:48;3.38;;;1.90;;
31336;SDS011;22846;42.654;23.314;2023-02-01T05:51:13;7.90;;;1.75;;
31336;SDS011;22846;42.654;23.314;2023-02-01T05:53:38;12.20;;;1.90;;
31336;SDS011;22846;42.654;23.314;2023-02-01T05:56:04;13.27;;;4.75;;
31336;SDS011;22846;42.654;23.314;2023-02-01T05:58:30;19.52;;;6.78;;
31336;SDS011;22846;42.654;23.314;2023-02-01T06:00:58;15.90;;;5.28;;
31336;SDS011;22846;42.654;23.314;2023-02-01T06:03:24;18.77;;;5.65;;
31336;SDS011;22846;42.654;23.314;2023-02-01T06:05:49;14.85;;;4.57;;
31336;SDS011;22846;42.654;23.314;2023-02-01T06:08:15;14.25;;;4.80;;
31336;SDS011;22846;42.654;23.314;2023-02-01T06:10:43;11.88;;;3.92;;
31336;SDS011;22846;42.654;23.314;2023-02-01T06:13:08;16.75;;;3.90;;
31336;SDS011;22846;42.654;23.314;2023-02-01T06:15:34;14.25;;;4.05;;
31336;SDS011;22846;42.654;23.314;2023-02-01T06:18:02;10.38;;;3.35;;
31336;SDS011;22846;42.654;23.314;2023-02-01T06:20:28;11.98;;;3.45;;
31336;SDS011;22846;42.654;23.314;2023-02-01T06:22:53;13.57;;;3.67;;
31336;SDS011;22846;42.654;23.314;2023-02-01T06:25:19;10.98;;;3.15;;
31336;SDS011;22846;42.654;23.314;2023-02-01T06:27:45;11.32;;;3.45;;
31336;SDS011;22846;42.654;23.314;2023-02-01T06:30:11;11.10;;;3.53;;
31336;SDS011;22846;42.654;23.314;2023-02-01T06:32:39;8.02;;;3.63;;
31336;SDS011;22846;42.654;23.314;2023-02-01T06:35:06;8.32;;;3.53;;
31336;SDS011;22846;42.654;23.314;2023-02-01T06:37:32;8.98;;;3.38;;
31336;SDS011;22846;42.654;23.314;2023-02-01T06:39:58;7.97;;;3.30;;
31336;SDS011;22846;42.654;23.314;2023-02-01T06:42:23;9.73;;;3.45;;
31336;SDS011;22846;42.654;23.314;2023-02-01T06:44:49;8.05;;;3.28;;
31336;SDS011;22846;42.654;23.314;2023-02-01T06:47:14;6.63;;;2.85;;
31336;SDS011;22846;42.654;23.314;2023-02-01T06:49:39;8.30;;;3.13;;
31336;SDS011;22846;42.654;23.314;2023-02-01T06:52:05;9.40;;;3.25;;
31336;SDS011;22846;42.654;23.314;2023-02-01T06:54:31;7.10;;;3.03;;
31336;SDS011;22846;42.654;23.314;2023-02-01T06:56:58;9.65;;;2.90;;
31336;SDS011;22846;42.654;23.314;2023-02-01T06:59:24;5.45;;;2.65;;
31336;SDS011;22846;42.654;23.314;2023-02-01T07:01:49;9.23;;;2.88;;
31336;SDS011;22846;42.654;23.314;2023-02-01T07:04:15;9.10;;;2.67;;
31336;SDS011;22846;42.654;23.314;2023-02-01T07:06:40;7.50;;;3.35;;
31336;SDS011;22846;42.654;23.314;2023-02-01T07:09:06;8.15;;;2.38;;
31336;SDS011;22846;42.654;23.314;2023-02-01T07:11:32;5.78;;;2.50;;
31336;SDS011;22846;42.654;23.314;2023-02-01T07:13:58;6.07;;;2.92;;
31336;SDS011;22846;42.654;23.314;2023-02-01T07:16:24;7.03;;;2.90;;
31336;SDS011;22846;42.654;23.314;2023-02-01T07:18:50;10.27;;;2.97;;
31336;SDS011;22846;42.654;23.314;2023-02-01T07:21:17;5.90;;;2.30;;
31336;SDS011;22846;42.654;23.314;2023-02-01T07:23:42;5.05;;;2.85;;
31336;SDS011;22846;42.654;23.314;2023-02-01T07:26:09;5.57;;;2.72;;
31336;SDS011;22846;42.654;23.314;2023-02-01T07:28:37;6.43;;;2.63;;
31336;SDS011;22846;42.654;23.314;2023-02-01T07:31:06;6.22;;;3.05;;
31336;SDS011;22846;42.654;23.314;2023-02-01T07:33:33;6.68;;;2.25;;
31336;SDS011;22846;42.654;23.314;2023-02-01T07:36:00;5.47;;;2.67;;
31336;SDS011;22846;42.654;23.314;2023-02-01T07:38:27;6.55;;;2.35;;
31336;SDS011;22846;42.654;23.314;2023-02-01T07:40:56;6.20;;;2.50;;
31336;SDS011;22846;42.654;23.314;2023-02-01T07:43:25;4.75;;;2.30;;
31336;SDS011;22846;42.654;23.314;2023-02-01T07:45:53;7.00;;;2.65;;
31336;SDS011;22846;42.654;23.314;2023-02-01T07:48:20;6.00;;;2.35;;
31336;SDS011;22846;42.654;23.314;2023-02-01T07:50:46;5.85;;;2.53;;
31336;SDS011;22846;42.654;23.314;2023-02-01T07:53:11;6.45;;;2.40;;
31336;SDS011;22846;42.654;23.314;2023-02-01T07:55:37;7.93;;;2.67;;
31336;SDS011;22846;42.654;23.314;2023-02-01T07:58:03;4.60;;;2.63;;
31336;SDS011;22846;42.654;23.314;2023-02-01T08:00:29;5.82;;;2.83;;
31336;SDS011;22846;42.654;23.314;2023-02-01T08:03:13;5.95;;;2.72;;
31336;SDS011;22846;42.654;23.314;2023-02-01T08:05:38;6.68;;;2.13;;
31336;SDS011;22846;42.654;23.314;2023-02-01T08:08:04;6.47;;;2.25;;
31336;SDS011;22846;42.654;23.314;2023-02-01T08:10:30;4.55;;;2.15;;
31336;SDS011;22846;42.654;23.314;2023-02-01T08:12:59;5.68;;;2.58;;
31336;SDS011;22846;42.654;23.314;2023-02-01T08:15:25;5.15;;;2.45;;
31336;SDS011;22846;42.654;23.314;2023-02-01T08:17:52;5.90;;;2.40;;
31336;SDS011;22846;42.654;23.314;2023-02-01T08:20:19;5.38;;;2.60;;
31336;SDS011;22846;42.654;23.314;2023-02-01T08:22:51;4.47;;;2.28;;
31336;SDS011;22846;42.654;23.314;2023-02-01T08:25:16;4.22;;;2.30;;
31336;SDS011;22846;42.654;23.314;2023-02-01T08:27:42;6.05;;;2.00;;
31336;SDS011;22846;42.654;23.314;2023-02-01T08:30:08;4.25;;;2.42;;
31336;SDS011;22846;42.654;23.314;2023-02-01T08:32:36;5.22;;;2.05;;
31336;SDS011;22846;42.654;23.314;2023-02-01T08:35:02;5.30;;;2.30;;
31336;SDS011;22846;42.654;23.314;2023-02-01T08:37:28;4.97;;;2.25;;
31336;SDS011;22846;42.654;23.314;2023-02-01T08:39:54;3.95;;;1.80;;
31336;SDS011;22846;42.654;23.314;2023-02-01T08:42:19;4.70;;;2.30;;
31336;SDS011;22846;42.654;23.314;2023-02-01T08:45:05;3.15;;;1.95;;
31336;SDS011;22846;42.654;23.314;2023-02-01T08:47:32;6.35;;;2.00;;
31336;SDS011;22846;42.654;23.314;2023-02-01T08:49:59;4.85;;;2.33;;
31336;SDS011;22846;42.654;23.314;2023-02-01T08:52:24;4.07;;;1.98;;
31336;SDS011;22846;42.654;23.314;2023-02-01T08:54:50;2.58;;;1.80;;
31336;SDS011;22846;42.654;23.314;2023-02-01T08:57:15;2.53;;;1.80;;
31336;SDS011;22846;42.654;23.314;2023-02-01T08:59:41;5.95;;;2.15;;
31336;SDS011;22846;42.654;23.314;2023-02-01T09:02:09;3.45;;;1.88;;
31336;SDS011;22846;42.654;23.314;2023-02-01T09:04:37;5.68;;;2.50;;
31336;SDS011;22846;42.654;23.314;2023-02-01T09:07:03;4.70;;;2.20;;
31336;SDS011;22846;42.654;23.314;2023-02-01T09:09:28;3.53;;;1.85;;
31336;SDS011;22846;42.654;23.314;2023-02-01T09:11:53;5.70;;;1.80;;
31336;SDS011;22846;42.654;23.314;2023-02-01T09:14:19;4.72;;;2.30;;
31336;SDS011;22846;42.654;23.314;2023-02-01T09:16:44;2.92;;;1.85;;
31336;SDS011;22846;42.654;23.314;2023-02-01T09:19:10;4.38;;;1.95;;
31336;SDS011;22846;42.654;23.314;2023-02-01T09:21:35;5.22;;;1.90;;
31336;SDS011;22846;42.654;23.314;2023-02-01T09:24:01;4.25;;;1.70;;
31336;SDS011;22846;42.654;23.314;2023-02-01T09:26:27;4.57;;;1.80;;
31336;SDS011;22846;42.654;23.314;2023-02-01T09:28:52;4.63;;;2.05;;
31336;SDS011;22846;42.654;23.314;2023-02-01T09:31:18;3.65;;;1.88;;
31336;SDS011;22846;42.654;23.314;2023-02-01T09:33:44;3.10;;;1.67;;
31336;SDS011;22846;42.654;23.314;2023-02-01T09:36:09;5.00;;;1.88;;
31336;SDS011;22846;42.654;23.314;2023-02-01T09:38:35;3.13;;;1.90;;
31336;SDS011;22846;42.654;23.314;2023-02-01T09:41:00;3.25;;;1.75;;
31336;SDS011;22846;42.654;23.314;2023-02-01T09:45:59;3.67;;;1.65;;
31336;SDS011;22846;42.654;23.314;2023-02-01T09:48:32;3.60;;;1.85;;
31336;SDS011;22846;42.654;23.314;2023-02-01T09:51:02;3.88;;;1.65;;
31336;SDS011;22846;42.654;23.314;2023-02-01T09:53:38;4.03;;;1.77;;
31336;SDS011;22846;42.654;23.314;2023-02-01T09:58:55;3.67;;;1.75;;
31336;SDS011;22846;42.654;23.314;2023-02-01T10:01:24;2.75;;;1.67;;
31336;SDS011;22846;42.654;23.314;2023-02-01T10:03:52;2.65;;;1.75;;
31336;SDS011;22846;42.654;23.314;2023-02-01T10:23:11;3.17;;;1.60;;
31336;SDS011;22846;42.654;23.314;2023-02-01T10:28:31;3.03;;;1.80;;
31336;SDS011;22846;42.654;23.314;2023-02-01T10:31:01;2.78;;;1.45;;
31336;SDS011;22846;42.654;23.314;2023-02-01T10:33:35;2.25;;;1.50;;
31336;SDS011;22846;42.654;23.314;2023-02-01T10:36:14;2.85;;;1.70;;
31336;SDS011;22846;42.654;23.314;2023-02-01T10:38:42;2.55;;;1.58;;
31336;SDS011;22846;42.654;23.314;2023-02-01T10:43:36;2.78;;;1.38;;
31336;SDS011;22846;42.654;23.314;2023-02-01T10:46:04;2.35;;;1.50;;
31336;SDS011;22846;42.654;23.314;2023-02-01T10:48:29;4.80;;;1.70;;
31336;SDS011;22846;42.654;23.314;2023-02-01T10:51:00;1.95;;;1.33;;
31336;SDS011;22846;42.654;23.314;2023-02-01T10:56:11;2.15;;;1.30;;
31336;SDS011;22846;42.654;23.314;2023-02-01T10:58:43;3.50;;;1.55;;
31336;SDS011;22846;42.654;23.314;2023-02-01T11:01:22;2.17;;;1.30;;
31336;SDS011;22846;42.654;23.314;2023-02-01T11:04:05;1.98;;;1.38;;
31336;SDS011;22846;42.654;23.314;2023-02-01T11:14:20;1.70;;;1.20;;
31336;SDS011;22846;42.654;23.314;2023-02-01T11:16:53;1.98;;;1.42;;
31336;SDS011;22846;42.654;23.314;2023-02-01T11:19:18;3.10;;;1.65;;
31336;SDS011;22846;42.654;23.314;2023-02-01T11:21:44;2.75;;;1.63;;
31336;SDS011;22846;42.654;23.314;2023-02-01T11:24:28;2.38;;;1.40;;
31336;SDS011;22846;42.654;23.314;2023-02-01T11:26:56;1.90;;;1.27;;
31336;SDS011;22846;42.654;23.314;2023-02-01T11:29:24;4.18;;;1.52;;
31336;SDS011;22846;42.654;23.314;2023-02-01T11:31:55;2.33;;;1.33;;
31336;SDS011;22846;42.654;23.314;2023-02-01T11:34:24;3.38;;;1.55;;
31336;SDS011;22846;42.654;23.314;2023-02-01T11:36:54;3.13;;;1.55;;
31336;SDS011;22846;42.654;23.314;2023-02-01T11:39:33;2.20;;;1.35;;
31336;SDS011;22846;42.654;23.314;2023-02-01T11:44:32;2.28;;;1.33;;
31336;SDS011;22846;42.654;23.314;2023-02-01T11:49:44;1.92;;;1.33;;
31336;SDS011;22846;42.654;23.314;2023-02-01T11:55:35;1.95;;;1.38;;
31336;SDS011;22846;42.654;23.314;2023-02-01T12:06:50;2.92;;;1.30;;
31336;SDS011;22846;42.654;23.314;2023-02-01T12:09:29;2.33;;;1.30;;
31336;SDS011;22846;42.654;23.314;2023-02-01T12:36:10;2.03;;;1.35;;
31336;SDS011;22846;42.654;23.314;2023-02-01T12:41:51;1.95;;;1.33;;
31336;SDS011;22846;42.654;23.314;2023-02-01T12:46:39;1.45;;;1.08;;
31336;SDS011;22846;42.654;23.314;2023-02-01T12:52:13;1.60;;;1.08;;
31336;SDS011;22846;42.654;23.314;2023-02-01T12:55:47;2.53;;;1.38;;
31336;SDS011;22846;42.654;23.314;2023-02-01T12:58:11;1.70;;;1.02;;
31336;SDS011;22846;42.654;23.314;2023-02-01T13:00:50;2.85;;;1.52;;
31336;SDS011;22846;42.654;23.314;2023-02-01T13:06:28;1.92;;;1.30;;
31336;SDS011;22846;42.654;23.314;2023-02-01T13:09:02;2.88;;;1.40;;
31336;SDS011;22846;42.654;23.314;2023-02-01T13:11:37;1.30;;;1.10;;
31336;SDS011;22846;42.654;23.314;2023-02-01T13:17:10;1.98;;;1.20;;
31336;SDS011;22846;42.654;23.314;2023-02-01T13:19:50;1.23;;;1.13;;
31336;SDS011;22846;42.654;23.314;2023-02-01T13:22:19;1.75;;;1.15;;
31336;SDS011;22846;42.654;23.314;2023-02-01T13:25:00;1.17;;;0.90;;
31336;SDS011;22846;42.654;23.314;2023-02-01T13:27:29;2.22;;;1.20;;
31336;SDS011;22846;42.654;23.314;2023-02-01T13:29:58;1.80;;;1.02;;
31336;SDS011;22846;42.654;23.314;2023-02-01T13:43:52;1.90;;;1.23;;
31336;SDS011;22846;42.654;23.314;2023-02-01T13:46:22;1.52;;;1.05;;
31336;SDS011;22846;42.654;23.314;2023-02-01T13:48:53;3.10;;;1.30;;
31336;SDS011;22846;42.654;23.314;2023-02-01T13:51:41;1.77;;;1.27;;
31336;SDS011;22846;42.654;23.314;2023-02-01T13:56:51;1.65;;;1.20;;
31336;SDS011;22846;42.654;23.314;2023-02-01T14:05:11;1.17;;;0.95;;
31336;SDS011;22846;42.654;23.314;2023-02-01T14:13:33;1.35;;;1.00;;
31336;SDS011;22846;42.654;23.314;2023-02-01T14:23:40;2.15;;;1.10;;
31336;SDS011;22846;42.654;23.314;2023-02-01T14:26:09;2.72;;;1.10;;
31336;SDS011;22846;42.654;23.314;2023-02-01T14:34:02;1.63;;;0.90;;
31336;SDS011;22846;42.654;23.314;2023-02-01T14:36:42;0.98;;;0.90;;
31336;SDS011;22846;42.654;23.314;2023-02-01T14:39:24;1.25;;;0.95;;
31336;SDS011;22846;42.654;23.314;2023-02-01T14:41:55;1.30;;;1.00;;
31336;SDS011;22846;42.654;23.314;2023-02-01T14:44:25;1.20;;;0.80;;
31336;SDS011;22846;42.654;23.314;2023-02-01T14:47:09;1.73;;;1.02;;
31336;SDS011;22846;42.654;23.314;2023-02-01T14:49:56;0.90;;;0.77;;
31336;SDS011;22846;42.654;23.314;2023-02-01T14:52:32;2.03;;;1.10;;
31336;SDS011;22846;42.654;23.314;2023-02-01T14:55:02;1.10;;;0.82;;
31336;SDS011;22846;42.654;23.314;2023-02-01T14:57:34;1.30;;;0.70;;
31336;SDS011;22846;42.654;23.314;2023-02-01T15:00:26;0.88;;;0.80;;
31336;SDS011;22846;42.654;23.314;2023-02-01T15:02:51;1.00;;;0.80;;
31336;SDS011;22846;42.654;23.314;2023-02-01T15:07:55;1.08;;;0.93;;
31336;SDS011;22846;42.654;23.314;2023-02-01T15:10:23;1.35;;;0.93;;
31336;SDS011;22846;42.654;23.314;2023-02-01T15:12:49;1.60;;;0.90;;
31336;SDS011;22846;42.654;23.314;2023-02-01T15:15:20;1.70;;;0.88;;
31336;SDS011;22846;42.654;23.314;2023-02-01T15:17:52;0.73;;;0.73;;
31336;SDS011;22846;42.654;23.314;2023-02-01T15:20:21;1.05;;;0.80;;
31336;SDS011;22846;42.654;23.314;2023-02-01T15:22:56;1.30;;;0.90;;
31336;SDS011;22846;42.654;23.314;2023-02-01T15:25:30;0.95;;;0.80;;
31336;SDS011;22846;42.654;23.314;2023-02-01T15:28:01;1.00;;;0.80;;
31336;SDS011;22846;42.654;23.314;2023-02-01T15:30:32;1.08;;;0.80;;
31336;SDS011;22846;42.654;23.314;2023-02-01T15:35:41;1.17;;;0.85;;
31336;SDS011;22846;42.654;23.314;2023-02-01T15:46:24;0.80;;;0.63;;
31336;SDS011;22846;42.654;23.314;2023-02-01T15:48:58;0.60;;;0.60;;
31336;SDS011;22846;42.654;23.314;2023-02-01T15:51:25;1.05;;;0.80;;
31336;SDS011;22846;42.654;23.314;2023-02-01T15:54:04;1.30;;;0.98;;
31336;SDS011;22846;42.654;23.314;2023-02-01T15:56:39;0.73;;;0.52;;
31336;SDS011;22846;42.654;23.314;2023-02-01T15:59:12;0.95;;;0.60;;
31336;SDS011;22846;42.654;23.314;2023-02-01T16:01:41;1.33;;;0.70;;
31336;SDS011;22846;42.654;23.314;2023-02-01T16:06:46;2.03;;;0.88;;
31336;SDS011;22846;42.654;23.314;2023-02-01T16:09:21;2.30;;;0.80;;
31336;SDS011;22846;42.654;23.314;2023-02-01T16:14:17;2.70;;;0.80;;
31336;SDS011;22846;42.654;23.314;2023-02-01T16:16:42;3.28;;;1.20;;
31336;SDS011;22846;42.654;23.314;2023-02-01T16:19:08;2.80;;;1.10;;
31336;SDS011;22846;42.654;23.314;2023-02-01T16:21:33;4.20;;;0.90;;
31336;SDS011;22846;42.654;23.314;2023-02-01T16:23:59;1.77;;;0.70;;
31336;SDS011;22846;42.654;23.314;2023-02-01T16:26:28;3.03;;;0.77;;
31336;SDS011;22846;42.654;23.314;2023-02-01T16:28:54;4.43;;;1.20;;
31336;SDS011;22846;42.654;23.314;2023-02-01T16:31:20;2.83;;;0.70;;
31336;SDS011;22846;42.654;23.314;2023-02-01T16:33:50;3.17;;;0.85;;
31336;SDS011;22846;42.654;23.314;2023-02-01T16:36:16;3.63;;;0.98;;
31336;SDS011;22846;42.654;23.314;2023-02-01T16:38:43;2.25;;;1.15;;
31336;SDS011;22846;42.654;23.314;2023-02-01T16:41:12;3.35;;;1.00;;
31336;SDS011;22846;42.654;23.314;2023-02-01T16:43:39;3.40;;;0.90;;
31336;SDS011;22846;42.654;23.314;2023-02-01T16:46:04;1.67;;;0.85;;
31336;SDS011;22846;42.654;23.314;2023-02-01T16:48:35;1.40;;;0.70;;
31336;SDS011;22846;42.654;23.314;2023-02-01T16:51:02;5.63;;;1.00;;
31336;SDS011;22846;42.654;23.314;2023-02-01T16:53:32;1.95;;;0.90;;
31336;SDS011;22846;42.654;23.314;2023-02-01T16:55:58;3.10;;;0.93;;
31336;SDS011;22846;42.654;23.314;2023-02-01T16:58:24;1.65;;;0.70;;
31336;SDS011;22846;42.654;23.314;2023-02-01T17:00:51;1.98;;;0.65;;
31336;SDS011;22846;42.654;23.314;2023-02-01T17:03:18;2.05;;;0.90;;
31336;SDS011;22846;42.654;23.314;2023-02-01T17:05:49;5.13;;;0.80;;
31336;SDS011;22846;42.654;23.314;2023-02-01T17:08:18;1.10;;;0.80;;
31336;SDS011;22846;42.654;23.314;2023-02-01T17:10:48;2.35;;;0.70;;
31336;SDS011;22846;42.654;23.314;2023-02-01T17:13:14;0.80;;;0.65;;
31336;SDS011;22846;42.654;23.314;2023-02-01T17:15:43;1.38;;;0.90;;
31336;SDS011;22846;42.654;23.314;2023-02-01T17:18:14;0.80;;;0.70;;
31336;SDS011;22846;42.654;23.314;2023-02-01T17:20:41;1.02;;;0.60;;
31336;SDS011;22846;42.654;23.314;2023-02-01T17:23:07;1.00;;;0.80;;
31336;SDS011;22846;42.654;23.314;2023-02-01T17:25:32;2.50;;;0.70;;
31336;SDS011;22846;42.654;23.314;2023-02-01T17:27:58;0.55;;;0.55;;
31336;SDS011;22846;42.654;23.314;2023-02-01T17:30:23;1.48;;;0.85;;
31336;SDS011;22846;42.654;23.314;2023-02-01T17:32:49;1.10;;;0.60;;
31336;SDS011;22846;42.654;23.314;2023-02-01T17:35:19;0.90;;;0.80;;
31336;SDS011;22846;42.654;23.314;2023-02-01T17:37:47;1.38;;;0.65;;
31336;SDS011;22846;42.654;23.314;2023-02-01T17:40:14;0.93;;;0.57;;
31336;SDS011;22846;42.654;23.314;2023-02-01T17:42:40;1.23;;;0.70;;
31336;SDS011;22846;42.654;23.314;2023-02-01T17:45:49;0.77;;;0.70;;
31336;SDS011;22846;42.654;23.314;2023-02-01T17:48:05;0.95;;;0.77;;
31336;SDS011;22846;42.654;23.314;2023-02-01T17:50:34;1.77;;;0.80;;
31336;SDS011;22846;42.654;23.314;2023-02-01T17:53:01;3.45;;;0.80;;
31336;SDS011;22846;42.654;23.314;2023-02-01T17:55:33;3.53;;;0.73;;
31336;SDS011;22846;42.654;23.314;2023-02-01T17:58:01;5.05;;;1.27;;